sensor_id;sensor_type;location;lat;lon;timestamp;P1;durP1;ratioP1;P2;durP2;ratioP2
7289;SDS011;63176;52.678;13.250;2023-07-31T00:00:48;3.60;;;1.37;;
7289;SDS011;63176;52.678;13.250;2023-07-31T00:03:13;2.20;;;1.60;;
7289;SDS011;63176;52.678;13.250;2023-07-31T00:05:39;6.00;;;1.40;;
7289;SDS011;63176;52.678;13.250;2023-07-31T00:08:05;4.47;;;1.60;;
7289;SDS011;63176;52.678;13.250;2023-07-31T00:10:30;2.47;;;1.50;;
7289;SDS011;63176;52.678;13.250;2023-07-31T00:12:56;4.03;;;1.47;;
7289;SDS011;63176;52.678;13.250;2023-07-31T00:15:22;5.27;;;1.50;;
7289;SDS011;63176;52.678;13.250;2023-07-31T00:17:47;5.10;;;1.20;;
7289;SDS011;63176;52.678;13.250;2023-07-31T00:20:13;4.63;;;1.80;;
7289;SDS011;63176;52.678;13.250;2023-07-31T00:22:39;2.40;;;1.27;;
7289;SDS011;63176;52.678;13.250;2023-07-31T00:25:05;1.90;;;1.23;;
7289;SDS011;63176;52.678;13.250;2023-07-31T00:27:31;4.60;;;1.23;;
7289;SDS011;63176;52.678;13.250;2023-07-31T00:29:57;3.43;;;1.87;;
7289;SDS011;63176;52.678;13.250;2023-07-31T00:32:23;3.20;;;1.50;;
7289;SDS011;63176;52.678;13.250;2023-07-31T00:34:49;7.90;;;1.53;;
7289;SDS011;63176;52.678;13.250;2023-07-31T00:37:14;1.63;;;1.33;;
7289;SDS011;63176;52.678;13.250;2023-07-31T00:39:40;3.53;;;1.40;;
7289;SDS011;63176;52.678;13.250;2023-07-31T00:42:06;1.57;;;1.10;;
7289;SDS011;63176;52.678;13.250;2023-07-31T00:44:32;1.77;;;1.20;;
7289;SDS011;63176;52.678;13.250;2023-07-31T00:46:58;4.73;;;1.47;;
7289;SDS011;63176;52.678;13.250;2023-07-31T00:49:24;3.83;;;1.33;;
7289;SDS011;63176;52.678;13.250;2023-07-31T00:51:50;5.93;;;1.30;;
7289;SDS011;63176;52.678;13.250;2023-07-31T00:54:16;5.30;;;1.50;;
7289;SDS011;63176;52.678;13.250;2023-07-31T00:56:42;4.53;;;1.40;;
7289;SDS011;63176;52.678;13.250;2023-07-31T00:59:10;5.73;;;1.50;;
7289;SDS011;63176;52.678;13.250;2023-07-31T01:01:36;4.40;;;1.30;;
7289;SDS011;63176;52.678;13.250;2023-07-31T01:04:03;2.93;;;1.40;;
7289;SDS011;63176;52.678;13.250;2023-07-31T01:09:29;4.90;;;1.47;;
7289;SDS011;63176;52.678;13.250;2023-07-31T01:12:04;3.60;;;1.50;;
7289;SDS011;63176;52.678;13.250;2023-07-31T01:14:32;1.63;;;1.17;;
7289;SDS011;63176;52.678;13.250;2023-07-31T01:16:58;1.37;;;1.27;;
7289;SDS011;63176;52.678;13.250;2023-07-31T01:19:24;4.60;;;1.43;;
7289;SDS011;63176;52.678;13.250;2023-07-31T01:27:25;3.13;;;1.00;;
7289;SDS011;63176;52.678;13.250;2023-07-31T01:30:00;2.67;;;1.33;;
7289;SDS011;63176;52.678;13.250;2023-07-31T01:32:29;2.20;;;1.20;;
7289;SDS011;63176;52.678;13.250;2023-07-31T01:34:55;1.50;;;1.40;;
7289;SDS011;63176;52.678;13.250;2023-07-31T01:37:27;2.13;;;1.30;;
7289;SDS011;63176;52.678;13.250;2023-07-31T01:39:54;3.40;;;1.33;;
7289;SDS011;63176;52.678;13.250;2023-07-31T01:42:20;1.70;;;1.03;;
7289;SDS011;63176;52.678;13.250;2023-07-31T01:44:45;1.57;;;1.27;;
7289;SDS011;63176;52.678;13.250;2023-07-31T01:47:11;2.97;;;1.30;;
7289;SDS011;63176;52.678;13.250;2023-07-31T01:49:37;3.23;;;1.53;;
7289;SDS011;63176;52.678;13.250;2023-07-31T01:52:03;3.73;;;1.10;;
7289;SDS011;63176;52.678;13.250;2023-07-31T01:54:28;3.43;;;1.50;;
7289;SDS011;63176;52.678;13.250;2023-07-31T01:56:54;3.67;;;1.27;;
7289;SDS011;63176;52.678;13.250;2023-07-31T01:59:20;2.10;;;1.33;;
7289;SDS011;63176;52.678;13.250;2023-07-31T02:01:46;1.73;;;1.50;;
7289;SDS011;63176;52.678;13.250;2023-07-31T02:04:12;2.40;;;1.57;;
7289;SDS011;63176;52.678;13.250;2023-07-31T02:06:37;7.10;;;2.40;;
7289;SDS011;63176;52.678;13.250;2023-07-31T02:09:04;4.20;;;2.20;;
7289;SDS011;63176;52.678;13.250;2023-07-31T02:11:30;3.97;;;2.30;;
7289;SDS011;63176;52.678;13.250;2023-07-31T02:13:55;3.63;;;1.90;;
7289;SDS011;63176;52.678;13.250;2023-07-31T02:16:21;3.67;;;2.23;;
7289;SDS011;63176;52.678;13.250;2023-07-31T02:18:47;5.77;;;2.27;;
7289;SDS011;63176;52.678;13.250;2023-07-31T02:21:12;2.43;;;1.80;;
7289;SDS011;63176;52.678;13.250;2023-07-31T02:23:38;4.07;;;2.00;;
7289;SDS011;63176;52.678;13.250;2023-07-31T02:26:04;3.73;;;1.70;;
7289;SDS011;63176;52.678;13.250;2023-07-31T02:28:29;2.87;;;2.23;;
7289;SDS011;63176;52.678;13.250;2023-07-31T02:30:55;4.30;;;1.97;;
7289;SDS011;63176;52.678;13.250;2023-07-31T02:33:21;3.00;;;1.90;;
7289;SDS011;63176;52.678;13.250;2023-07-31T02:35:46;6.70;;;2.33;;
7289;SDS011;63176;52.678;13.250;2023-07-31T02:38:12;3.77;;;2.00;;
7289;SDS011;63176;52.678;13.250;2023-07-31T02:40:39;4.43;;;2.00;;
7289;SDS011;63176;52.678;13.250;2023-07-31T02:43:06;3.33;;;2.17;;
7289;SDS011;63176;52.678;13.250;2023-07-31T02:45:32;3.80;;;1.90;;
7289;SDS011;63176;52.678;13.250;2023-07-31T02:47:58;4.23;;;2.30;;
7289;SDS011;63176;52.678;13.250;2023-07-31T02:50:23;3.17;;;1.83;;
7289;SDS011;63176;52.678;13.250;2023-07-31T02:52:49;3.33;;;2.10;;
7289;SDS011;63176;52.678;13.250;2023-07-31T02:55:15;3.73;;;2.07;;
7289;SDS011;63176;52.678;13.250;2023-07-31T02:57:40;5.60;;;2.67;;
7289;SDS011;63176;52.678;13.250;2023-07-31T03:00:06;6.10;;;2.70;;
7289;SDS011;63176;52.678;13.250;2023-07-31T03:02:32;2.83;;;2.00;;
7289;SDS011;63176;52.678;13.250;2023-07-31T03:04:58;4.93;;;2.10;;
7289;SDS011;63176;52.678;13.250;2023-07-31T03:07:24;2.50;;;2.20;;
7289;SDS011;63176;52.678;13.250;2023-07-31T03:09:50;6.20;;;2.20;;
7289;SDS011;63176;52.678;13.250;2023-07-31T03:12:15;3.57;;;2.60;;
7289;SDS011;63176;52.678;13.250;2023-07-31T03:14:41;3.77;;;2.00;;
7289;SDS011;63176;52.678;13.250;2023-07-31T03:17:07;4.63;;;2.10;;
7289;SDS011;63176;52.678;13.250;2023-07-31T03:19:32;3.47;;;2.03;;
7289;SDS011;63176;52.678;13.250;2023-07-31T03:21:59;9.93;;;4.20;;
7289;SDS011;63176;52.678;13.250;2023-07-31T03:24:25;3.93;;;2.83;;
7289;SDS011;63176;52.678;13.250;2023-07-31T03:26:51;3.00;;;2.00;;
7289;SDS011;63176;52.678;13.250;2023-07-31T03:29:16;2.70;;;2.40;;
7289;SDS011;63176;52.678;13.250;2023-07-31T03:31:42;2.60;;;2.17;;
7289;SDS011;63176;52.678;13.250;2023-07-31T03:34:08;6.00;;;2.30;;
7289;SDS011;63176;52.678;13.250;2023-07-31T03:36:33;3.60;;;1.97;;
7289;SDS011;63176;52.678;13.250;2023-07-31T03:38:59;4.53;;;1.83;;
7289;SDS011;63176;52.678;13.250;2023-07-31T03:41:25;6.03;;;2.33;;
7289;SDS011;63176;52.678;13.250;2023-07-31T03:43:51;3.10;;;2.43;;
7289;SDS011;63176;52.678;13.250;2023-07-31T03:46:17;6.43;;;2.40;;
7289;SDS011;63176;52.678;13.250;2023-07-31T03:48:43;3.03;;;1.90;;
7289;SDS011;63176;52.678;13.250;2023-07-31T03:51:11;7.40;;;2.17;;
7289;SDS011;63176;52.678;13.250;2023-07-31T03:53:36;4.80;;;2.00;;
7289;SDS011;63176;52.678;13.250;2023-07-31T03:56:02;3.03;;;1.83;;
7289;SDS011;63176;52.678;13.250;2023-07-31T03:58:28;4.63;;;1.83;;
7289;SDS011;63176;52.678;13.250;2023-07-31T04:00:54;4.53;;;2.70;;
7289;SDS011;63176;52.678;13.250;2023-07-31T04:03:19;2.57;;;2.33;;
7289;SDS011;63176;52.678;13.250;2023-07-31T04:05:45;3.33;;;2.40;;
7289;SDS011;63176;52.678;13.250;2023-07-31T04:08:11;4.03;;;2.30;;
7289;SDS011;63176;52.678;13.250;2023-07-31T04:10:36;3.23;;;2.20;;
7289;SDS011;63176;52.678;13.250;2023-07-31T04:13:02;4.13;;;2.40;;
7289;SDS011;63176;52.678;13.250;2023-07-31T04:15:28;3.30;;;2.30;;
7289;SDS011;63176;52.678;13.250;2023-07-31T04:17:53;2.93;;;2.60;;
7289;SDS011;63176;52.678;13.250;2023-07-31T04:20:19;2.90;;;2.57;;
7289;SDS011;63176;52.678;13.250;2023-07-31T04:22:45;4.63;;;2.40;;
7289;SDS011;63176;52.678;13.250;2023-07-31T04:25:10;5.50;;;2.83;;
7289;SDS011;63176;52.678;13.250;2023-07-31T04:27:36;3.57;;;2.60;;
7289;SDS011;63176;52.678;13.250;2023-07-31T04:30:02;3.97;;;2.27;;
7289;SDS011;63176;52.678;13.250;2023-07-31T04:32:28;4.43;;;2.97;;
7289;SDS011;63176;52.678;13.250;2023-07-31T04:34:54;5.30;;;2.60;;
7289;SDS011;63176;52.678;13.250;2023-07-31T04:37:20;7.87;;;3.33;;
7289;SDS011;63176;52.678;13.250;2023-07-31T04:39:46;3.63;;;2.70;;
7289;SDS011;63176;52.678;13.250;2023-07-31T04:42:12;3.07;;;2.47;;
7289;SDS011;63176;52.678;13.250;2023-07-31T04:44:37;5.60;;;3.10;;
7289;SDS011;63176;52.678;13.250;2023-07-31T04:47:03;4.20;;;2.90;;
7289;SDS011;63176;52.678;13.250;2023-07-31T04:49:29;2.30;;;2.20;;
7289;SDS011;63176;52.678;13.250;2023-07-31T04:51:54;3.30;;;2.73;;
7289;SDS011;63176;52.678;13.250;2023-07-31T04:54:20;3.30;;;3.00;;
7289;SDS011;63176;52.678;13.250;2023-07-31T04:56:46;10.23;;;3.03;;
7289;SDS011;63176;52.678;13.250;2023-07-31T04:59:12;3.67;;;3.30;;
7289;SDS011;63176;52.678;13.250;2023-07-31T05:01:38;6.40;;;3.40;;
7289;SDS011;63176;52.678;13.250;2023-07-31T05:04:04;4.53;;;3.33;;
7289;SDS011;63176;52.678;13.250;2023-07-31T05:06:29;3.53;;;3.10;;
7289;SDS011;63176;52.678;13.250;2023-07-31T05:08:55;6.57;;;3.30;;
7289;SDS011;63176;52.678;13.250;2023-07-31T05:11:21;4.17;;;3.00;;
7289;SDS011;63176;52.678;13.250;2023-07-31T05:13:46;3.33;;;2.83;;
7289;SDS011;63176;52.678;13.250;2023-07-31T05:16:12;5.67;;;3.10;;
7289;SDS011;63176;52.678;13.250;2023-07-31T05:18:38;4.30;;;2.93;;
7289;SDS011;63176;52.678;13.250;2023-07-31T05:21:03;4.80;;;3.40;;
7289;SDS011;63176;52.678;13.250;2023-07-31T05:23:29;10.80;;;3.60;;
7289;SDS011;63176;52.678;13.250;2023-07-31T05:26:02;6.30;;;3.20;;
7289;SDS011;63176;52.678;13.250;2023-07-31T05:28:31;7.60;;;3.43;;
7289;SDS011;63176;52.678;13.250;2023-07-31T05:31:03;3.40;;;3.10;;
7289;SDS011;63176;52.678;13.250;2023-07-31T05:33:29;3.83;;;3.00;;
7289;SDS011;63176;52.678;13.250;2023-07-31T05:35:55;7.30;;;2.60;;
7289;SDS011;63176;52.678;13.250;2023-07-31T05:38:21;5.80;;;3.20;;
7289;SDS011;63176;52.678;13.250;2023-07-31T05:40:47;5.73;;;2.67;;
7289;SDS011;63176;52.678;13.250;2023-07-31T05:43:13;5.23;;;3.20;;
7289;SDS011;63176;52.678;13.250;2023-07-31T05:45:39;7.43;;;2.83;;
7289;SDS011;63176;52.678;13.250;2023-07-31T05:48:06;4.53;;;3.13;;
7289;SDS011;63176;52.678;13.250;2023-07-31T05:50:35;4.73;;;2.83;;
7289;SDS011;63176;52.678;13.250;2023-07-31T05:53:04;4.93;;;2.83;;
7289;SDS011;63176;52.678;13.250;2023-07-31T05:55:29;3.90;;;3.50;;
7289;SDS011;63176;52.678;13.250;2023-07-31T05:57:55;6.20;;;2.80;;
7289;SDS011;63176;52.678;13.250;2023-07-31T06:00:21;7.17;;;2.57;;
7289;SDS011;63176;52.678;13.250;2023-07-31T06:02:47;4.67;;;2.87;;
7289;SDS011;63176;52.678;13.250;2023-07-31T06:05:13;7.93;;;3.33;;
7289;SDS011;63176;52.678;13.250;2023-07-31T06:07:39;3.97;;;2.27;;
7289;SDS011;63176;52.678;13.250;2023-07-31T06:10:05;4.80;;;3.30;;
7289;SDS011;63176;52.678;13.250;2023-07-31T06:12:32;4.13;;;2.90;;
7289;SDS011;63176;52.678;13.250;2023-07-31T06:14:58;4.87;;;2.90;;
7289;SDS011;63176;52.678;13.250;2023-07-31T06:17:24;5.87;;;3.30;;
7289;SDS011;63176;52.678;13.250;2023-07-31T06:19:51;3.20;;;2.70;;
7289;SDS011;63176;52.678;13.250;2023-07-31T06:22:17;4.97;;;2.83;;
7289;SDS011;63176;52.678;13.250;2023-07-31T06:24:43;7.83;;;2.63;;
7289;SDS011;63176;52.678;13.250;2023-07-31T06:27:09;3.40;;;2.70;;
7289;SDS011;63176;52.678;13.250;2023-07-31T06:29:35;3.97;;;2.53;;
7289;SDS011;63176;52.678;13.250;2023-07-31T06:32:01;7.03;;;3.57;;
7289;SDS011;63176;52.678;13.250;2023-07-31T06:34:27;5.87;;;2.87;;
7289;SDS011;63176;52.678;13.250;2023-07-31T06:36:53;12.73;;;2.80;;
7289;SDS011;63176;52.678;13.250;2023-07-31T06:39:18;5.77;;;2.83;;
7289;SDS011;63176;52.678;13.250;2023-07-31T06:41:44;3.40;;;3.10;;
7289;SDS011;63176;52.678;13.250;2023-07-31T06:44:10;5.57;;;3.17;;
7289;SDS011;63176;52.678;13.250;2023-07-31T06:46:36;3.30;;;3.00;;
7289;SDS011;63176;52.678;13.250;2023-07-31T06:49:02;3.10;;;2.40;;
7289;SDS011;63176;52.678;13.250;2023-07-31T06:51:27;5.97;;;2.33;;
7289;SDS011;63176;52.678;13.250;2023-07-31T06:53:53;3.40;;;2.73;;
7289;SDS011;63176;52.678;13.250;2023-07-31T06:56:20;4.00;;;3.10;;
7289;SDS011;63176;52.678;13.250;2023-07-31T06:58:46;6.93;;;2.83;;
7289;SDS011;63176;52.678;13.250;2023-07-31T07:01:12;5.60;;;2.63;;
7289;SDS011;63176;52.678;13.250;2023-07-31T07:03:37;2.80;;;2.27;;
7289;SDS011;63176;52.678;13.250;2023-07-31T07:06:03;5.40;;;2.30;;
7289;SDS011;63176;52.678;13.250;2023-07-31T07:08:29;3.87;;;2.33;;
7289;SDS011;63176;52.678;13.250;2023-07-31T07:10:54;6.83;;;2.47;;
7289;SDS011;63176;52.678;13.250;2023-07-31T07:13:20;6.60;;;3.30;;
7289;SDS011;63176;52.678;13.250;2023-07-31T07:15:50;4.80;;;2.40;;
7289;SDS011;63176;52.678;13.250;2023-07-31T07:18:16;50.03;;;6.70;;
7289;SDS011;63176;52.678;13.250;2023-07-31T07:20:46;5.67;;;3.37;;
7289;SDS011;63176;52.678;13.250;2023-07-31T07:23:16;3.27;;;2.40;;
7289;SDS011;63176;52.678;13.250;2023-07-31T07:25:42;3.10;;;2.10;;
7289;SDS011;63176;52.678;13.250;2023-07-31T07:28:08;4.17;;;2.30;;
7289;SDS011;63176;52.678;13.250;2023-07-31T07:30:34;6.03;;;2.03;;
7289;SDS011;63176;52.678;13.250;2023-07-31T07:33:00;9.53;;;2.53;;
7289;SDS011;63176;52.678;13.250;2023-07-31T07:35:26;4.10;;;2.27;;
7289;SDS011;63176;52.678;13.250;2023-07-31T07:37:51;3.87;;;2.60;;
7289;SDS011;63176;52.678;13.250;2023-07-31T07:40:18;3.13;;;2.10;;
7289;SDS011;63176;52.678;13.250;2023-07-31T07:42:46;6.43;;;1.70;;
7289;SDS011;63176;52.678;13.250;2023-07-31T07:45:11;5.70;;;2.70;;
7289;SDS011;63176;52.678;13.250;2023-07-31T07:47:38;5.27;;;2.87;;
7289;SDS011;63176;52.678;13.250;2023-07-31T07:50:06;7.20;;;2.20;;
7289;SDS011;63176;52.678;13.250;2023-07-31T07:52:32;3.10;;;1.97;;
7289;SDS011;63176;52.678;13.250;2023-07-31T07:54:57;5.10;;;2.50;;
7289;SDS011;63176;52.678;13.250;2023-07-31T07:57:23;3.00;;;2.00;;
7289;SDS011;63176;52.678;13.250;2023-07-31T07:59:49;3.33;;;2.13;;
7289;SDS011;63176;52.678;13.250;2023-07-31T08:02:14;6.00;;;1.83;;
7289;SDS011;63176;52.678;13.250;2023-07-31T08:04:40;3.53;;;1.67;;
7289;SDS011;63176;52.678;13.250;2023-07-31T08:07:06;4.53;;;2.33;;
7289;SDS011;63176;52.678;13.250;2023-07-31T08:09:31;3.37;;;2.37;;
7289;SDS011;63176;52.678;13.250;2023-07-31T08:11:57;4.77;;;2.00;;
7289;SDS011;63176;52.678;13.250;2023-07-31T08:14:27;3.53;;;1.87;;
7289;SDS011;63176;52.678;13.250;2023-07-31T08:16:53;5.07;;;2.13;;
7289;SDS011;63176;52.678;13.250;2023-07-31T08:19:18;3.77;;;2.20;;
7289;SDS011;63176;52.678;13.250;2023-07-31T08:21:44;5.40;;;2.20;;
7289;SDS011;63176;52.678;13.250;2023-07-31T08:24:10;1.70;;;1.60;;
7289;SDS011;63176;52.678;13.250;2023-07-31T08:26:35;4.10;;;2.00;;
7289;SDS011;63176;52.678;13.250;2023-07-31T08:29:01;5.57;;;2.30;;
7289;SDS011;63176;52.678;13.250;2023-07-31T08:31:27;7.13;;;2.57;;
7289;SDS011;63176;52.678;13.250;2023-07-31T08:33:54;10.43;;;3.17;;
7289;SDS011;63176;52.678;13.250;2023-07-31T08:36:20;2.20;;;1.60;;
7289;SDS011;63176;52.678;13.250;2023-07-31T08:38:46;3.43;;;2.00;;
7289;SDS011;63176;52.678;13.250;2023-07-31T08:41:12;3.37;;;1.67;;
7289;SDS011;63176;52.678;13.250;2023-07-31T08:43:42;4.53;;;2.67;;
7289;SDS011;63176;52.678;13.250;2023-07-31T08:46:10;3.60;;;1.77;;
7289;SDS011;63176;52.678;13.250;2023-07-31T08:48:36;2.17;;;1.70;;
7289;SDS011;63176;52.678;13.250;2023-07-31T08:51:03;2.67;;;1.90;;
7289;SDS011;63176;52.678;13.250;2023-07-31T08:53:29;2.37;;;1.70;;
7289;SDS011;63176;52.678;13.250;2023-07-31T08:55:55;3.07;;;1.73;;
7289;SDS011;63176;52.678;13.250;2023-07-31T08:58:23;5.70;;;1.93;;
7289;SDS011;63176;52.678;13.250;2023-07-31T09:00:50;1.90;;;1.60;;
7289;SDS011;63176;52.678;13.250;2023-07-31T09:03:17;3.30;;;2.73;;
7289;SDS011;63176;52.678;13.250;2023-07-31T09:05:45;2.97;;;2.20;;
7289;SDS011;63176;52.678;13.250;2023-07-31T09:08:12;4.13;;;1.97;;
7289;SDS011;63176;52.678;13.250;2023-07-31T09:10:41;3.50;;;1.93;;
7289;SDS011;63176;52.678;13.250;2023-07-31T09:13:07;4.10;;;2.20;;
7289;SDS011;63176;52.678;13.250;2023-07-31T09:15:34;2.30;;;2.00;;
7289;SDS011;63176;52.678;13.250;2023-07-31T09:18:01;6.20;;;2.00;;
7289;SDS011;63176;52.678;13.250;2023-07-31T09:20:28;3.97;;;1.90;;
7289;SDS011;63176;52.678;13.250;2023-07-31T09:22:54;8.83;;;2.27;;
7289;SDS011;63176;52.678;13.250;2023-07-31T09:25:26;2.53;;;1.90;;
7289;SDS011;63176;52.678;13.250;2023-07-31T09:28:08;2.40;;;1.60;;
7289;SDS011;63176;52.678;13.250;2023-07-31T09:33:29;1.40;;;1.30;;
7289;SDS011;63176;52.678;13.250;2023-07-31T09:35:56;0.97;;;0.97;;
7289;SDS011;63176;52.678;13.250;2023-07-31T09:38:25;1.23;;;1.13;;
7289;SDS011;63176;52.678;13.250;2023-07-31T09:40:51;2.13;;;1.10;;
7289;SDS011;63176;52.678;13.250;2023-07-31T09:43:18;4.00;;;1.23;;
7289;SDS011;63176;52.678;13.250;2023-07-31T09:45:44;3.57;;;1.43;;
7289;SDS011;63176;52.678;13.250;2023-07-31T09:48:12;1.93;;;1.20;;
7289;SDS011;63176;52.678;13.250;2023-07-31T09:50:43;2.60;;;1.20;;
7289;SDS011;63176;52.678;13.250;2023-07-31T09:53:10;1.43;;;1.20;;
7289;SDS011;63176;52.678;13.250;2023-07-31T09:55:36;3.13;;;1.00;;
7289;SDS011;63176;52.678;13.250;2023-07-31T09:58:04;2.17;;;1.40;;
7289;SDS011;63176;52.678;13.250;2023-07-31T10:00:32;1.70;;;1.07;;
7289;SDS011;63176;52.678;13.250;2023-07-31T10:02:59;2.30;;;1.10;;
7289;SDS011;63176;52.678;13.250;2023-07-31T10:05:49;1.30;;;1.20;;
7289;SDS011;63176;52.678;13.250;2023-07-31T10:08:15;2.03;;;1.00;;
7289;SDS011;63176;52.678;13.250;2023-07-31T10:10:43;2.27;;;1.27;;
7289;SDS011;63176;52.678;13.250;2023-07-31T10:13:09;1.20;;;1.00;;
7289;SDS011;63176;52.678;13.250;2023-07-31T10:15:36;0.83;;;0.83;;
7289;SDS011;63176;52.678;13.250;2023-07-31T10:18:02;1.20;;;1.10;;
7289;SDS011;63176;52.678;13.250;2023-07-31T10:20:33;2.10;;;1.10;;
7289;SDS011;63176;52.678;13.250;2023-07-31T10:22:59;1.33;;;1.23;;
7289;SDS011;63176;52.678;13.250;2023-07-31T10:25:26;2.10;;;1.77;;
7289;SDS011;63176;52.678;13.250;2023-07-31T10:27:52;2.80;;;1.23;;
7289;SDS011;63176;52.678;13.250;2023-07-31T10:30:21;1.30;;;1.13;;
7289;SDS011;63176;52.678;13.250;2023-07-31T10:32:50;1.77;;;1.67;;
7289;SDS011;63176;52.678;13.250;2023-07-31T10:35:17;2.83;;;1.53;;
7289;SDS011;63176;52.678;13.250;2023-07-31T10:37:43;8.33;;;2.30;;
7289;SDS011;63176;52.678;13.250;2023-07-31T10:40:10;2.40;;;1.60;;
7289;SDS011;63176;52.678;13.250;2023-07-31T10:42:36;1.80;;;1.70;;
7289;SDS011;63176;52.678;13.250;2023-07-31T10:45:07;3.67;;;2.20;;
7289;SDS011;63176;52.678;13.250;2023-07-31T10:47:42;3.20;;;1.97;;
7289;SDS011;63176;52.678;13.250;2023-07-31T10:50:16;4.83;;;1.97;;
7289;SDS011;63176;52.678;13.250;2023-07-31T10:52:52;2.50;;;2.30;;
7289;SDS011;63176;52.678;13.250;2023-07-31T10:55:29;3.83;;;2.40;;
7289;SDS011;63176;52.678;13.250;2023-07-31T10:58:10;4.30;;;2.73;;
7289;SDS011;63176;52.678;13.250;2023-07-31T11:00:41;2.60;;;2.00;;
7289;SDS011;63176;52.678;13.250;2023-07-31T11:03:09;3.93;;;2.47;;
7289;SDS011;63176;52.678;13.250;2023-07-31T11:05:43;8.10;;;2.97;;
7289;SDS011;63176;52.678;13.250;2023-07-31T11:08:22;5.40;;;2.83;;
7289;SDS011;63176;52.678;13.250;2023-07-31T11:13:31;5.07;;;3.07;;
7289;SDS011;63176;52.678;13.250;2023-07-31T11:15:57;2.60;;;2.40;;
7289;SDS011;63176;52.678;13.250;2023-07-31T11:18:23;8.07;;;2.80;;
7289;SDS011;63176;52.678;13.250;2023-07-31T11:20:49;10.27;;;3.27;;
7289;SDS011;63176;52.678;13.250;2023-07-31T11:23:15;5.50;;;2.80;;
7289;SDS011;63176;52.678;13.250;2023-07-31T11:25:42;4.47;;;3.07;;
7289;SDS011;63176;52.678;13.250;2023-07-31T11:28:09;6.90;;;3.97;;
7289;SDS011;63176;52.678;13.250;2023-07-31T11:30:36;3.93;;;2.47;;
7289;SDS011;63176;52.678;13.250;2023-07-31T11:33:03;6.97;;;2.70;;
7289;SDS011;63176;52.678;13.250;2023-07-31T11:35:34;4.67;;;3.10;;
7289;SDS011;63176;52.678;13.250;2023-07-31T11:38:01;10.40;;;3.17;;
7289;SDS011;63176;52.678;13.250;2023-07-31T11:40:28;5.87;;;3.30;;
7289;SDS011;63176;52.678;13.250;2023-07-31T11:42:55;4.87;;;3.57;;
7289;SDS011;63176;52.678;13.250;2023-07-31T11:45:23;4.20;;;3.30;;
7289;SDS011;63176;52.678;13.250;2023-07-31T11:47:51;6.23;;;3.17;;
7289;SDS011;63176;52.678;13.250;2023-07-31T11:50:17;4.80;;;3.57;;
7289;SDS011;63176;52.678;13.250;2023-07-31T11:52:44;5.43;;;3.40;;
7289;SDS011;63176;52.678;13.250;2023-07-31T11:55:11;4.90;;;2.90;;
7289;SDS011;63176;52.678;13.250;2023-07-31T11:57:38;5.73;;;3.10;;
7289;SDS011;63176;52.678;13.250;2023-07-31T12:00:06;4.20;;;2.97;;
7289;SDS011;63176;52.678;13.250;2023-07-31T12:02:34;7.17;;;3.10;;
7289;SDS011;63176;52.678;13.250;2023-07-31T12:05:00;4.23;;;2.80;;
7289;SDS011;63176;52.678;13.250;2023-07-31T12:07:27;7.30;;;3.30;;
7289;SDS011;63176;52.678;13.250;2023-07-31T12:09:55;3.23;;;2.90;;
7289;SDS011;63176;52.678;13.250;2023-07-31T12:12:22;4.60;;;2.80;;
7289;SDS011;63176;52.678;13.250;2023-07-31T12:14:50;5.60;;;3.13;;
7289;SDS011;63176;52.678;13.250;2023-07-31T12:17:17;4.63;;;3.33;;
7289;SDS011;63176;52.678;13.250;2023-07-31T12:19:45;8.03;;;3.20;;
7289;SDS011;63176;52.678;13.250;2023-07-31T12:22:13;7.93;;;3.87;;
7289;SDS011;63176;52.678;13.250;2023-07-31T12:24:41;5.27;;;2.93;;
7289;SDS011;63176;52.678;13.250;2023-07-31T12:27:11;3.70;;;2.70;;
7289;SDS011;63176;52.678;13.250;2023-07-31T12:29:38;5.73;;;2.70;;
7289;SDS011;63176;52.678;13.250;2023-07-31T12:32:18;3.77;;;2.70;;
7289;SDS011;63176;52.678;13.250;2023-07-31T12:34:48;6.07;;;2.73;;
7289;SDS011;63176;52.678;13.250;2023-07-31T12:37:14;4.00;;;2.40;;
7289;SDS011;63176;52.678;13.250;2023-07-31T12:39:40;4.97;;;2.90;;
7289;SDS011;63176;52.678;13.250;2023-07-31T12:42:06;3.97;;;3.00;;
7289;SDS011;63176;52.678;13.250;2023-07-31T12:44:31;7.13;;;3.80;;
7289;SDS011;63176;52.678;13.250;2023-07-31T12:46:57;4.90;;;3.43;;
7289;SDS011;63176;52.678;13.250;2023-07-31T12:49:23;7.13;;;3.20;;
7289;SDS011;63176;52.678;13.250;2023-07-31T12:51:48;3.83;;;3.13;;
7289;SDS011;63176;52.678;13.250;2023-07-31T12:54:14;3.53;;;2.87;;
7289;SDS011;63176;52.678;13.250;2023-07-31T12:56:40;5.50;;;2.93;;
7289;SDS011;63176;52.678;13.250;2023-07-31T12:59:05;4.53;;;2.97;;
7289;SDS011;63176;52.678;13.250;2023-07-31T13:01:31;6.63;;;3.30;;
7289;SDS011;63176;52.678;13.250;2023-07-31T13:03:57;10.27;;;3.77;;
7289;SDS011;63176;52.678;13.250;2023-07-31T13:06:24;5.13;;;3.37;;
7289;SDS011;63176;52.678;13.250;2023-07-31T13:08:50;7.10;;;3.43;;
7289;SDS011;63176;52.678;13.250;2023-07-31T13:11:16;3.90;;;2.57;;
7289;SDS011;63176;52.678;13.250;2023-07-31T13:13:42;5.03;;;2.70;;
7289;SDS011;63176;52.678;13.250;2023-07-31T13:16:07;6.30;;;2.97;;
7289;SDS011;63176;52.678;13.250;2023-07-31T13:18:33;4.80;;;3.17;;
7289;SDS011;63176;52.678;13.250;2023-07-31T13:20:59;7.03;;;2.93;;
7289;SDS011;63176;52.678;13.250;2023-07-31T13:23:25;8.70;;;3.40;;
7289;SDS011;63176;52.678;13.250;2023-07-31T13:25:50;5.67;;;3.07;;
7289;SDS011;63176;52.678;13.250;2023-07-31T13:28:16;3.67;;;2.57;;
7289;SDS011;63176;52.678;13.250;2023-07-31T13:30:42;7.87;;;2.63;;
7289;SDS011;63176;52.678;13.250;2023-07-31T13:33:08;10.77;;;3.37;;
7289;SDS011;63176;52.678;13.250;2023-07-31T13:35:33;4.30;;;2.60;;
7289;SDS011;63176;52.678;13.250;2023-07-31T13:37:59;3.10;;;2.80;;
7289;SDS011;63176;52.678;13.250;2023-07-31T13:40:25;5.10;;;2.63;;
7289;SDS011;63176;52.678;13.250;2023-07-31T13:42:50;3.10;;;2.30;;
7289;SDS011;63176;52.678;13.250;2023-07-31T13:45:16;2.23;;;2.03;;
7289;SDS011;63176;52.678;13.250;2023-07-31T13:47:42;2.53;;;1.97;;
7289;SDS011;63176;52.678;13.250;2023-07-31T13:50:08;4.33;;;2.40;;
7289;SDS011;63176;52.678;13.250;2023-07-31T13:52:34;5.10;;;2.53;;
7289;SDS011;63176;52.678;13.250;2023-07-31T13:54:59;3.00;;;2.10;;
7289;SDS011;63176;52.678;13.250;2023-07-31T13:57:25;3.00;;;2.10;;
7289;SDS011;63176;52.678;13.250;2023-07-31T13:59:50;2.60;;;2.40;;
7289;SDS011;63176;52.678;13.250;2023-07-31T14:02:16;3.57;;;2.17;;
7289;SDS011;63176;52.678;13.250;2023-07-31T14:04:42;3.87;;;2.23;;
7289;SDS011;63176;52.678;13.250;2023-07-31T14:07:08;3.30;;;2.10;;
7289;SDS011;63176;52.678;13.250;2023-07-31T14:09:33;3.93;;;3.20;;
7289;SDS011;63176;52.678;13.250;2023-07-31T14:11:59;2.17;;;1.83;;
7289;SDS011;63176;52.678;13.250;2023-07-31T14:14:25;2.80;;;2.23;;
7289;SDS011;63176;52.678;13.250;2023-07-31T14:16:50;3.20;;;2.20;;
7289;SDS011;63176;52.678;13.250;2023-07-31T14:19:16;3.60;;;2.30;;
7289;SDS011;63176;52.678;13.250;2023-07-31T14:21:42;3.60;;;2.33;;
7289;SDS011;63176;52.678;13.250;2023-07-31T14:24:07;5.17;;;2.43;;
7289;SDS011;63176;52.678;13.250;2023-07-31T14:26:33;5.93;;;2.87;;
7289;SDS011;63176;52.678;13.250;2023-07-31T14:28:59;5.10;;;2.63;;
7289;SDS011;63176;52.678;13.250;2023-07-31T14:31:24;3.17;;;2.13;;
7289;SDS011;63176;52.678;13.250;2023-07-31T14:33:50;3.80;;;2.57;;
7289;SDS011;63176;52.678;13.250;2023-07-31T14:36:16;7.33;;;2.60;;
7289;SDS011;63176;52.678;13.250;2023-07-31T14:38:41;4.33;;;2.67;;
7289;SDS011;63176;52.678;13.250;2023-07-31T14:41:07;3.00;;;2.03;;
7289;SDS011;63176;52.678;13.250;2023-07-31T14:43:33;3.27;;;2.47;;
7289;SDS011;63176;52.678;13.250;2023-07-31T14:45:59;7.90;;;2.93;;
7289;SDS011;63176;52.678;13.250;2023-07-31T14:48:25;4.40;;;2.70;;
7289;SDS011;63176;52.678;13.250;2023-07-31T14:50:52;3.70;;;2.40;;
7289;SDS011;63176;52.678;13.250;2023-07-31T14:53:18;4.53;;;2.20;;
7289;SDS011;63176;52.678;13.250;2023-07-31T14:55:43;4.83;;;2.57;;
7289;SDS011;63176;52.678;13.250;2023-07-31T14:58:09;5.80;;;2.87;;